sensor_id;sensor_type;location;lat;lon;timestamp;P1;durP1;ratioP1;P2;durP2;ratioP2
22429;SDS011;11382;48.086;11.632;2023-06-26T00:01:51;12.38;;;9.10;;
22429;SDS011;11382;48.086;11.632;2023-06-26T00:04:20;11.27;;;8.85;;
22429;SDS011;11382;48.086;11.632;2023-06-26T00:06:51;11.07;;;8.70;;
22429;SDS011;11382;48.086;11.632;2023-06-26T00:09:20;12.85;;;9.05;;
22429;SDS011;11382;48.086;11.632;2023-06-26T00:11:49;13.60;;;9.60;;
22429;SDS011;11382;48.086;11.632;2023-06-26T00:14:17;13.02;;;9.05;;
22429;SDS011;11382;48.086;11.632;2023-06-26T00:16:48;14.50;;;8.93;;
22429;SDS011;11382;48.086;11.632;2023-06-26T00:19:16;12.18;;;8.50;;
22429;SDS011;11382;48.086;11.632;2023-06-26T00:21:45;13.07;;;8.63;;
22429;SDS011;11382;48.086;11.632;2023-06-26T00:24:14;13.55;;;9.98;;
22429;SDS011;11382;48.086;11.632;2023-06-26T00:26:46;13.35;;;9.27;;
22429;SDS011;11382;48.086;11.632;2023-06-26T00:29:16;15.48;;;9.15;;
22429;SDS011;11382;48.086;11.632;2023-06-26T00:31:44;11.05;;;8.63;;
22429;SDS011;11382;48.086;11.632;2023-06-26T00:34:15;12.27;;;9.20;;
22429;SDS011;11382;48.086;11.632;2023-06-26T00:36:45;14.38;;;9.10;;
22429;SDS011;11382;48.086;11.632;2023-06-26T00:39:13;12.95;;;9.00;;
22429;SDS011;11382;48.086;11.632;2023-06-26T00:41:43;12.00;;;8.93;;
22429;SDS011;11382;48.086;11.632;2023-06-26T00:44:11;11.65;;;8.88;;
22429;SDS011;11382;48.086;11.632;2023-06-26T00:46:43;11.38;;;8.70;;
22429;SDS011;11382;48.086;11.632;2023-06-26T00:49:12;11.88;;;8.93;;
22429;SDS011;11382;48.086;11.632;2023-06-26T00:51:43;18.83;;;9.32;;
22429;SDS011;11382;48.086;11.632;2023-06-26T00:54:13;12.48;;;9.23;;
22429;SDS011;11382;48.086;11.632;2023-06-26T00:56:47;11.73;;;8.30;;
22429;SDS011;11382;48.086;11.632;2023-06-26T00:59:16;11.15;;;8.60;;
22429;SDS011;11382;48.086;11.632;2023-06-26T01:01:48;11.57;;;8.80;;
22429;SDS011;11382;48.086;11.632;2023-06-26T01:04:16;13.18;;;9.45;;
22429;SDS011;11382;48.086;11.632;2023-06-26T01:06:47;12.07;;;8.70;;
22429;SDS011;11382;48.086;11.632;2023-06-26T01:09:17;11.52;;;8.90;;
22429;SDS011;11382;48.086;11.632;2023-06-26T01:11:49;11.75;;;7.93;;
22429;SDS011;11382;48.086;11.632;2023-06-26T01:14:20;12.32;;;8.90;;
22429;SDS011;11382;48.086;11.632;2023-06-26T01:16:50;12.90;;;8.52;;
22429;SDS011;11382;48.086;11.632;2023-06-26T01:19:24;13.00;;;9.10;;
22429;SDS011;11382;48.086;11.632;2023-06-26T01:21:56;11.45;;;8.63;;
22429;SDS011;11382;48.086;11.632;2023-06-26T01:24:31;12.10;;;8.20;;
22429;SDS011;11382;48.086;11.632;2023-06-26T01:27:04;10.57;;;8.05;;
22429;SDS011;11382;48.086;11.632;2023-06-26T01:29:33;11.75;;;8.35;;
22429;SDS011;11382;48.086;11.632;2023-06-26T01:32:04;12.50;;;8.43;;
22429;SDS011;11382;48.086;11.632;2023-06-26T01:34:35;10.88;;;8.38;;
22429;SDS011;11382;48.086;11.632;2023-06-26T01:37:03;10.60;;;8.13;;
22429;SDS011;11382;48.086;11.632;2023-06-26T01:39:32;10.57;;;7.93;;
22429;SDS011;11382;48.086;11.632;2023-06-26T01:42:01;11.13;;;7.78;;
22429;SDS011;11382;48.086;11.632;2023-06-26T01:44:32;11.85;;;7.95;;
22429;SDS011;11382;48.086;11.632;2023-06-26T01:47:05;11.00;;;7.72;;
22429;SDS011;11382;48.086;11.632;2023-06-26T01:49:38;11.70;;;7.63;;
22429;SDS011;11382;48.086;11.632;2023-06-26T01:52:19;10.77;;;7.32;;
22429;SDS011;11382;48.086;11.632;2023-06-26T01:54:52;12.25;;;8.02;;
22429;SDS011;11382;48.086;11.632;2023-06-26T01:57:26;11.40;;;7.43;;
22429;SDS011;11382;48.086;11.632;2023-06-26T01:59:56;14.75;;;8.25;;
22429;SDS011;11382;48.086;11.632;2023-06-26T02:02:27;10.13;;;7.40;;
22429;SDS011;11382;48.086;11.632;2023-06-26T02:04:56;11.27;;;7.95;;
22429;SDS011;11382;48.086;11.632;2023-06-26T02:07:24;10.75;;;7.75;;
22429;SDS011;11382;48.086;11.632;2023-06-26T02:09:54;11.50;;;7.93;;
22429;SDS011;11382;48.086;11.632;2023-06-26T02:12:22;12.35;;;7.28;;
22429;SDS011;11382;48.086;11.632;2023-06-26T02:14:50;10.15;;;7.70;;
22429;SDS011;11382;48.086;11.632;2023-06-26T02:17:27;9.85;;;7.35;;
22429;SDS011;11382;48.086;11.632;2023-06-26T02:19:58;11.48;;;7.68;;
22429;SDS011;11382;48.086;11.632;2023-06-26T02:22:27;10.65;;;7.55;;
22429;SDS011;11382;48.086;11.632;2023-06-26T02:24:57;11.80;;;8.05;;
22429;SDS011;11382;48.086;11.632;2023-06-26T02:27:26;10.68;;;7.20;;
22429;SDS011;11382;48.086;11.632;2023-06-26T02:29:56;10.43;;;7.78;;
22429;SDS011;11382;48.086;11.632;2023-06-26T02:32:25;13.93;;;8.00;;
22429;SDS011;11382;48.086;11.632;2023-06-26T02:34:55;12.23;;;8.52;;
22429;SDS011;11382;48.086;11.632;2023-06-26T02:37:26;12.60;;;7.82;;
22429;SDS011;11382;48.086;11.632;2023-06-26T02:39:57;12.85;;;7.93;;
22429;SDS011;11382;48.086;11.632;2023-06-26T02:42:26;11.80;;;7.72;;
22429;SDS011;11382;48.086;11.632;2023-06-26T02:44:56;9.68;;;7.03;;
22429;SDS011;11382;48.086;11.632;2023-06-26T02:47:28;12.10;;;7.75;;
22429;SDS011;11382;48.086;11.632;2023-06-26T02:49:57;11.07;;;7.85;;
22429;SDS011;11382;48.086;11.632;2023-06-26T02:52:27;11.15;;;7.53;;
22429;SDS011;11382;48.086;11.632;2023-06-26T02:54:57;13.68;;;8.23;;
22429;SDS011;11382;48.086;11.632;2023-06-26T02:57:27;10.93;;;7.47;;
22429;SDS011;11382;48.086;11.632;2023-06-26T02:59:55;11.05;;;7.75;;
22429;SDS011;11382;48.086;11.632;2023-06-26T03:02:25;11.20;;;7.97;;
22429;SDS011;11382;48.086;11.632;2023-06-26T03:04:55;11.57;;;7.68;;
22429;SDS011;11382;48.086;11.632;2023-06-26T03:07:24;11.65;;;7.75;;
22429;SDS011;11382;48.086;11.632;2023-06-26T03:09:55;11.38;;;7.78;;
22429;SDS011;11382;48.086;11.632;2023-06-26T03:12:23;10.35;;;7.53;;
22429;SDS011;11382;48.086;11.632;2023-06-26T03:14:51;11.15;;;8.07;;
22429;SDS011;11382;48.086;11.632;2023-06-26T03:17:20;14.70;;;8.65;;
22429;SDS011;11382;48.086;11.632;2023-06-26T03:19:57;12.48;;;7.88;;
22429;SDS011;11382;48.086;11.632;2023-06-26T03:22:33;10.73;;;7.93;;
22429;SDS011;11382;48.086;11.632;2023-06-26T03:25:02;13.40;;;8.55;;
22429;SDS011;11382;48.086;11.632;2023-06-26T03:27:32;12.38;;;8.18;;
22429;SDS011;11382;48.086;11.632;2023-06-26T03:32:36;11.57;;;7.68;;
22429;SDS011;11382;48.086;11.632;2023-06-26T03:35:11;10.90;;;8.35;;
22429;SDS011;11382;48.086;11.632;2023-06-26T03:37:43;13.00;;;8.48;;
22429;SDS011;11382;48.086;11.632;2023-06-26T03:40:13;14.05;;;8.30;;
22429;SDS011;11382;48.086;11.632;2023-06-26T03:42:45;13.75;;;8.30;;
22429;SDS011;11382;48.086;11.632;2023-06-26T03:45:17;11.82;;;8.48;;
22429;SDS011;11382;48.086;11.632;2023-06-26T03:47:54;13.23;;;8.20;;
22429;SDS011;11382;48.086;11.632;2023-06-26T03:50:31;12.25;;;7.90;;
22429;SDS011;11382;48.086;11.632;2023-06-26T03:53:01;11.85;;;8.60;;
22429;SDS011;11382;48.086;11.632;2023-06-26T03:55:33;11.50;;;7.93;;
22429;SDS011;11382;48.086;11.632;2023-06-26T03:58:03;11.63;;;8.23;;
22429;SDS011;11382;48.086;11.632;2023-06-26T04:00:32;11.48;;;7.90;;
22429;SDS011;11382;48.086;11.632;2023-06-26T04:03:02;12.73;;;8.15;;
22429;SDS011;11382;48.086;11.632;2023-06-26T04:05:35;12.15;;;7.90;;
22429;SDS011;11382;48.086;11.632;2023-06-26T04:08:03;10.98;;;7.97;;
22429;SDS011;11382;48.086;11.632;2023-06-26T04:10:32;12.50;;;8.02;;
22429;SDS011;11382;48.086;11.632;2023-06-26T04:13:00;12.18;;;7.93;;
22429;SDS011;11382;48.086;11.632;2023-06-26T04:15:30;12.82;;;8.68;;
22429;SDS011;11382;48.086;11.632;2023-06-26T04:17:58;11.00;;;7.50;;
22429;SDS011;11382;48.086;11.632;2023-06-26T04:20:27;11.40;;;7.97;;
22429;SDS011;11382;48.086;11.632;2023-06-26T04:22:57;12.55;;;8.10;;
22429;SDS011;11382;48.086;11.632;2023-06-26T04:25:25;9.73;;;7.50;;
22429;SDS011;11382;48.086;11.632;2023-06-26T04:27:59;11.63;;;7.78;;
22429;SDS011;11382;48.086;11.632;2023-06-26T04:30:28;11.68;;;8.27;;
22429;SDS011;11382;48.086;11.632;2023-06-26T04:32:57;12.95;;;8.13;;
22429;SDS011;11382;48.086;11.632;2023-06-26T04:35:25;11.32;;;8.63;;
22429;SDS011;11382;48.086;11.632;2023-06-26T04:37:57;13.40;;;8.00;;
22429;SDS011;11382;48.086;11.632;2023-06-26T04:40:26;12.48;;;8.93;;
22429;SDS011;11382;48.086;11.632;2023-06-26T04:42:57;13.32;;;8.95;;
22429;SDS011;11382;48.086;11.632;2023-06-26T04:45:25;11.70;;;8.48;;
22429;SDS011;11382;48.086;11.632;2023-06-26T04:47:55;12.35;;;8.70;;
22429;SDS011;11382;48.086;11.632;2023-06-26T04:50:31;10.98;;;8.38;;
22429;SDS011;11382;48.086;11.632;2023-06-26T04:53:01;11.55;;;8.40;;
22429;SDS011;11382;48.086;11.632;2023-06-26T04:55:29;11.52;;;8.10;;
22429;SDS011;11382;48.086;11.632;2023-06-26T04:57:57;11.45;;;8.77;;
22429;SDS011;11382;48.086;11.632;2023-06-26T05:00:28;10.02;;;8.27;;
22429;SDS011;11382;48.086;11.632;2023-06-26T05:02:58;12.30;;;8.93;;
22429;SDS011;11382;48.086;11.632;2023-06-26T05:05:30;10.82;;;8.35;;
22429;SDS011;11382;48.086;11.632;2023-06-26T05:08:14;10.68;;;8.40;;
22429;SDS011;11382;48.086;11.632;2023-06-26T05:10:47;12.60;;;8.73;;
22429;SDS011;11382;48.086;11.632;2023-06-26T05:13:19;10.35;;;8.48;;
22429;SDS011;11382;48.086;11.632;2023-06-26T05:15:48;10.85;;;8.48;;
22429;SDS011;11382;48.086;11.632;2023-06-26T05:18:17;10.25;;;8.55;;
22429;SDS011;11382;48.086;11.632;2023-06-26T05:20:48;10.75;;;8.50;;
22429;SDS011;11382;48.086;11.632;2023-06-26T05:23:18;11.02;;;8.70;;
22429;SDS011;11382;48.086;11.632;2023-06-26T05:25:56;10.90;;;8.48;;
22429;SDS011;11382;48.086;11.632;2023-06-26T05:28:29;12.52;;;8.57;;
22429;SDS011;11382;48.086;11.632;2023-06-26T05:31:02;9.55;;;8.35;;
22429;SDS011;11382;48.086;11.632;2023-06-26T05:33:33;11.32;;;8.60;;
22429;SDS011;11382;48.086;11.632;2023-06-26T05:36:09;14.85;;;9.05;;
22429;SDS011;11382;48.086;11.632;2023-06-26T05:38:41;10.57;;;8.70;;
22429;SDS011;11382;48.086;11.632;2023-06-26T05:41:11;9.23;;;7.63;;
22429;SDS011;11382;48.086;11.632;2023-06-26T05:43:42;12.48;;;9.15;;
22429;SDS011;11382;48.086;11.632;2023-06-26T05:46:10;9.95;;;8.52;;
22429;SDS011;11382;48.086;11.632;2023-06-26T05:48:38;10.68;;;8.48;;
22429;SDS011;11382;48.086;11.632;2023-06-26T05:51:10;10.43;;;8.68;;
22429;SDS011;11382;48.086;11.632;2023-06-26T05:53:42;11.70;;;9.23;;
22429;SDS011;11382;48.086;11.632;2023-06-26T05:56:15;10.55;;;8.43;;
22429;SDS011;11382;48.086;11.632;2023-06-26T05:58:47;11.02;;;8.50;;
22429;SDS011;11382;48.086;11.632;2023-06-26T06:01:32;13.02;;;9.10;;
22429;SDS011;11382;48.086;11.632;2023-06-26T06:04:04;11.18;;;8.05;;
22429;SDS011;11382;48.086;11.632;2023-06-26T06:06:33;9.57;;;8.57;;
22429;SDS011;11382;48.086;11.632;2023-06-26T06:09:06;9.40;;;8.30;;
22429;SDS011;11382;48.086;11.632;2023-06-26T06:11:37;8.68;;;7.72;;
22429;SDS011;11382;48.086;11.632;2023-06-26T06:14:06;10.10;;;8.30;;
22429;SDS011;11382;48.086;11.632;2023-06-26T06:16:37;8.63;;;7.82;;
22429;SDS011;11382;48.086;11.632;2023-06-26T06:21:41;8.43;;;7.63;;
22429;SDS011;11382;48.086;11.632;2023-06-26T06:24:15;8.70;;;7.32;;
22429;SDS011;11382;48.086;11.632;2023-06-26T06:26:44;8.45;;;7.57;;
22429;SDS011;11382;48.086;11.632;2023-06-26T06:29:32;9.98;;;8.15;;
22429;SDS011;11382;48.086;11.632;2023-06-26T06:32:03;8.13;;;7.30;;
22429;SDS011;11382;48.086;11.632;2023-06-26T06:34:37;8.80;;;7.65;;
22429;SDS011;11382;48.086;11.632;2023-06-26T06:37:30;9.68;;;7.22;;
22429;SDS011;11382;48.086;11.632;2023-06-26T06:42:35;7.95;;;7.18;;
22429;SDS011;11382;48.086;11.632;2023-06-26T06:45:11;7.55;;;6.75;;
22429;SDS011;11382;48.086;11.632;2023-06-26T06:47:44;8.52;;;7.68;;
22429;SDS011;11382;48.086;11.632;2023-06-26T06:50:14;8.38;;;7.00;;
22429;SDS011;11382;48.086;11.632;2023-06-26T06:52:48;7.60;;;6.90;;
22429;SDS011;11382;48.086;11.632;2023-06-26T06:55:34;7.60;;;6.90;;
22429;SDS011;11382;48.086;11.632;2023-06-26T06:58:04;7.53;;;6.88;;
22429;SDS011;11382;48.086;11.632;2023-06-26T07:00:43;7.93;;;6.97;;
22429;SDS011;11382;48.086;11.632;2023-06-26T07:03:20;8.00;;;6.53;;
22429;SDS011;11382;48.086;11.632;2023-06-26T07:05:49;9.05;;;7.20;;
22429;SDS011;11382;48.086;11.632;2023-06-26T07:08:18;9.65;;;7.75;;
22429;SDS011;11382;48.086;11.632;2023-06-26T07:13:43;7.68;;;6.88;;
22429;SDS011;11382;48.086;11.632;2023-06-26T07:16:17;8.32;;;7.40;;
22429;SDS011;11382;48.086;11.632;2023-06-26T07:18:52;7.85;;;7.05;;
22429;SDS011;11382;48.086;11.632;2023-06-26T07:21:32;7.53;;;6.82;;
22429;SDS011;11382;48.086;11.632;2023-06-26T07:24:05;7.38;;;6.68;;
22429;SDS011;11382;48.086;11.632;2023-06-26T07:26:51;7.25;;;6.60;;
22429;SDS011;11382;48.086;11.632;2023-06-26T07:29:22;7.25;;;6.55;;
22429;SDS011;11382;48.086;11.632;2023-06-26T07:31:56;7.68;;;6.93;;
22429;SDS011;11382;48.086;11.632;2023-06-26T07:34:24;7.03;;;6.43;;
22429;SDS011;11382;48.086;11.632;2023-06-26T07:37:12;8.35;;;6.63;;
22429;SDS011;11382;48.086;11.632;2023-06-26T07:39:41;7.97;;;7.28;;
22429;SDS011;11382;48.086;11.632;2023-06-26T07:42:22;7.15;;;6.53;;
22429;SDS011;11382;48.086;11.632;2023-06-26T07:44:52;7.72;;;7.03;;
22429;SDS011;11382;48.086;11.632;2023-06-26T07:47:47;7.50;;;6.85;;
22429;SDS011;11382;48.086;11.632;2023-06-26T07:50:19;7.63;;;6.63;;
22429;SDS011;11382;48.086;11.632;2023-06-26T07:52:52;7.40;;;6.65;;
22429;SDS011;11382;48.086;11.632;2023-06-26T07:55:50;6.78;;;6.18;;
22429;SDS011;11382;48.086;11.632;2023-06-26T07:58:28;6.38;;;5.78;;
22429;SDS011;11382;48.086;11.632;2023-06-26T08:01:03;7.47;;;6.10;;
22429;SDS011;11382;48.086;11.632;2023-06-26T08:04:01;7.20;;;6.60;;
22429;SDS011;11382;48.086;11.632;2023-06-26T08:06:31;7.20;;;6.50;;
22429;SDS011;11382;48.086;11.632;2023-06-26T08:09:12;7.43;;;6.72;;
22429;SDS011;11382;48.086;11.632;2023-06-26T08:11:51;7.10;;;6.50;;
22429;SDS011;11382;48.086;11.632;2023-06-26T08:14:29;7.47;;;6.78;;
22429;SDS011;11382;48.086;11.632;2023-06-26T08:17:08;7.90;;;7.20;;
22429;SDS011;11382;48.086;11.632;2023-06-26T08:19:42;7.32;;;6.65;;
22429;SDS011;11382;48.086;11.632;2023-06-26T08:22:17;7.65;;;6.95;;
22429;SDS011;11382;48.086;11.632;2023-06-26T08:24:48;7.15;;;6.45;;
22429;SDS011;11382;48.086;11.632;2023-06-26T08:27:19;6.95;;;6.05;;
22429;SDS011;11382;48.086;11.632;2023-06-26T08:30:20;7.75;;;6.72;;
22429;SDS011;11382;48.086;11.632;2023-06-26T08:32:54;7.72;;;6.93;;
22429;SDS011;11382;48.086;11.632;2023-06-26T08:35:49;7.47;;;6.88;;
22429;SDS011;11382;48.086;11.632;2023-06-26T08:38:24;7.50;;;6.47;;
22429;SDS011;11382;48.086;11.632;2023-06-26T08:40:59;7.50;;;6.80;;
22429;SDS011;11382;48.086;11.632;2023-06-26T08:43:41;8.07;;;6.68;;
22429;SDS011;11382;48.086;11.632;2023-06-26T08:46:25;7.35;;;6.75;;
22429;SDS011;11382;48.086;11.632;2023-06-26T08:48:57;8.15;;;6.47;;
22429;SDS011;11382;48.086;11.632;2023-06-26T08:51:45;7.15;;;6.45;;
22429;SDS011;11382;48.086;11.632;2023-06-26T08:54:39;6.63;;;6.03;;
22429;SDS011;11382;48.086;11.632;2023-06-26T08:57:13;7.85;;;6.38;;
22429;SDS011;11382;48.086;11.632;2023-06-26T08:59:50;7.20;;;6.50;;
22429;SDS011;11382;48.086;11.632;2023-06-26T09:02:23;7.00;;;6.32;;
22429;SDS011;11382;48.086;11.632;2023-06-26T09:04:58;6.65;;;6.03;;
22429;SDS011;11382;48.086;11.632;2023-06-26T09:07:32;6.88;;;6.15;;
22429;SDS011;11382;48.086;11.632;2023-06-26T09:10:06;6.43;;;5.82;;
22429;SDS011;11382;48.086;11.632;2023-06-26T09:12:40;7.13;;;5.72;;
22429;SDS011;11382;48.086;11.632;2023-06-26T09:15:15;6.53;;;5.93;;
22429;SDS011;11382;48.086;11.632;2023-06-26T09:17:53;7.10;;;6.35;;
22429;SDS011;11382;48.086;11.632;2023-06-26T09:20:49;7.25;;;6.55;;
22429;SDS011;11382;48.086;11.632;2023-06-26T09:23:34;7.15;;;6.45;;
22429;SDS011;11382;48.086;11.632;2023-06-26T09:26:04;11.30;;;5.40;;
22429;SDS011;11382;48.086;11.632;2023-06-26T09:28:36;5.55;;;5.07;;
22429;SDS011;11382;48.086;11.632;2023-06-26T09:31:16;6.25;;;5.65;;
22429;SDS011;11382;48.086;11.632;2023-06-26T09:34:13;6.30;;;5.72;;
22429;SDS011;11382;48.086;11.632;2023-06-26T09:36:41;5.70;;;5.20;;
22429;SDS011;11382;48.086;11.632;2023-06-26T09:39:13;7.43;;;6.00;;
22429;SDS011;11382;48.086;11.632;2023-06-26T09:41:41;5.82;;;5.32;;
22429;SDS011;11382;48.086;11.632;2023-06-26T09:44:11;6.35;;;5.85;;
22429;SDS011;11382;48.086;11.632;2023-06-26T09:46:41;6.15;;;5.65;;
22429;SDS011;11382;48.086;11.632;2023-06-26T09:49:13;6.43;;;5.65;;
22429;SDS011;11382;48.086;11.632;2023-06-26T09:51:41;5.30;;;4.82;;
22429;SDS011;11382;48.086;11.632;2023-06-26T09:54:10;5.88;;;5.38;;
22429;SDS011;11382;48.086;11.632;2023-06-26T09:56:38;6.15;;;5.65;;
22429;SDS011;11382;48.086;11.632;2023-06-26T09:59:06;6.43;;;5.90;;
22429;SDS011;11382;48.086;11.632;2023-06-26T10:01:40;5.65;;;5.15;;
22429;SDS011;11382;48.086;11.632;2023-06-26T10:04:15;5.43;;;4.82;;
22429;SDS011;11382;48.086;11.632;2023-06-26T10:06:45;5.88;;;5.28;;
22429;SDS011;11382;48.086;11.632;2023-06-26T10:09:15;5.28;;;4.78;;
22429;SDS011;11382;48.086;11.632;2023-06-26T10:11:46;4.97;;;4.60;;
22429;SDS011;11382;48.086;11.632;2023-06-26T10:14:21;5.70;;;5.20;;
22429;SDS011;11382;48.086;11.632;2023-06-26T10:16:52;4.85;;;4.45;;
22429;SDS011;11382;48.086;11.632;2023-06-26T10:19:28;5.20;;;4.70;;
22429;SDS011;11382;48.086;11.632;2023-06-26T10:21:57;5.20;;;4.70;;
22429;SDS011;11382;48.086;11.632;2023-06-26T10:24:28;5.25;;;4.70;;
22429;SDS011;11382;48.086;11.632;2023-06-26T10:26:59;5.50;;;5.00;;
22429;SDS011;11382;48.086;11.632;2023-06-26T10:29:29;5.10;;;4.60;;
22429;SDS011;11382;48.086;11.632;2023-06-26T10:31:58;5.07;;;4.63;;
22429;SDS011;11382;48.086;11.632;2023-06-26T10:34:31;6.55;;;4.78;;
22429;SDS011;11382;48.086;11.632;2023-06-26T10:37:00;6.88;;;4.78;;
22429;SDS011;11382;48.086;11.632;2023-06-26T10:39:32;4.50;;;4.10;;
22429;SDS011;11382;48.086;11.632;2023-06-26T10:42:14;5.63;;;4.43;;
22429;SDS011;11382;48.086;11.632;2023-06-26T10:44:42;4.70;;;4.30;;
22429;SDS011;11382;48.086;11.632;2023-06-26T10:47:12;5.53;;;4.35;;
22429;SDS011;11382;48.086;11.632;2023-06-26T10:49:59;4.85;;;4.40;;
22429;SDS011;11382;48.086;11.632;2023-06-26T10:55:41;5.45;;;4.65;;
22429;SDS011;11382;48.086;11.632;2023-06-26T11:01:14;5.32;;;4.82;;
22429;SDS011;11382;48.086;11.632;2023-06-26T11:03:46;4.60;;;4.20;;
22429;SDS011;11382;48.086;11.632;2023-06-26T11:06:19;5.25;;;4.53;;
22429;SDS011;11382;48.086;11.632;2023-06-26T11:08:48;4.83;;;4.43;;
22429;SDS011;11382;48.086;11.632;2023-06-26T11:11:17;5.28;;;4.80;;
22429;SDS011;11382;48.086;11.632;2023-06-26T11:13:46;5.03;;;4.60;;
22429;SDS011;11382;48.086;11.632;2023-06-26T11:16:14;5.40;;;4.20;;
22429;SDS011;11382;48.086;11.632;2023-06-26T11:18:42;5.22;;;4.72;;
22429;SDS011;11382;48.086;11.632;2023-06-26T11:21:12;7.10;;;4.97;;
22429;SDS011;11382;48.086;11.632;2023-06-26T11:23:42;5.75;;;5.15;;
22429;SDS011;11382;48.086;11.632;2023-06-26T11:26:13;5.38;;;4.88;;
22429;SDS011;11382;48.086;11.632;2023-06-26T11:28:48;5.82;;;5.20;;
22429;SDS011;11382;48.086;11.632;2023-06-26T11:31:23;6.50;;;4.88;;
22429;SDS011;11382;48.086;11.632;2023-06-26T11:33:52;5.50;;;5.00;;
22429;SDS011;11382;48.086;11.632;2023-06-26T11:36:22;7.75;;;5.45;;
22429;SDS011;11382;48.086;11.632;2023-06-26T11:38:55;6.55;;;5.40;;
22429;SDS011;11382;48.086;11.632;2023-06-26T11:41:24;5.72;;;5.22;;
22429;SDS011;11382;48.086;11.632;2023-06-26T11:43:53;9.18;;;5.70;;
22429;SDS011;11382;48.086;11.632;2023-06-26T11:46:22;7.28;;;5.38;;
22429;SDS011;11382;48.086;11.632;2023-06-26T11:48:50;7.88;;;5.40;;
22429;SDS011;11382;48.086;11.632;2023-06-26T11:51:18;6.18;;;5.50;;
22429;SDS011;11382;48.086;11.632;2023-06-26T11:53:46;5.88;;;5.38;;
22429;SDS011;11382;48.086;11.632;2023-06-26T11:56:17;6.18;;;5.57;;
22429;SDS011;11382;48.086;11.632;2023-06-26T11:58:58;6.25;;;5.53;;
22429;SDS011;11382;48.086;11.632;2023-06-26T12:01:30;6.03;;;5.43;;
22429;SDS011;11382;48.086;11.632;2023-06-26T12:04:00;6.07;;;5.32;;
22429;SDS011;11382;48.086;11.632;2023-06-26T12:06:30;6.18;;;5.35;;
22429;SDS011;11382;48.086;11.632;2023-06-26T12:09:00;8.48;;;5.70;;
22429;SDS011;11382;48.086;11.632;2023-06-26T12:11:32;6.90;;;5.70;;
22429;SDS011;11382;48.086;11.632;2023-06-26T12:14:02;8.32;;;5.90;;
22429;SDS011;11382;48.086;11.632;2023-06-26T12:16:32;6.35;;;5.70;;
22429;SDS011;11382;48.086;11.632;2023-06-26T12:19:02;8.65;;;6.70;;
22429;SDS011;11382;48.086;11.632;2023-06-26T12:21:34;7.47;;;6.57;;
22429;SDS011;11382;48.086;11.632;2023-06-26T12:24:13;7.78;;;5.95;;
22429;SDS011;11382;48.086;11.632;2023-06-26T12:26:43;5.93;;;5.32;;
22429;SDS011;11382;48.086;11.632;2023-06-26T12:29:12;6.68;;;6.07;;
22429;SDS011;11382;48.086;11.632;2023-06-26T12:31:41;8.05;;;6.38;;
22429;SDS011;11382;48.086;11.632;2023-06-26T12:34:11;6.68;;;5.82;;
22429;SDS011;11382;48.086;11.632;2023-06-26T12:36:43;12.40;;;6.40;;
22429;SDS011;11382;48.086;11.632;2023-06-26T12:39:13;6.28;;;5.68;;
22429;SDS011;11382;48.086;11.632;2023-06-26T12:41:47;7.82;;;6.10;;
22429;SDS011;11382;48.086;11.632;2023-06-26T12:44:16;7.10;;;6.18;;
22429;SDS011;11382;48.086;11.632;2023-06-26T12:46:46;7.55;;;6.15;;
22429;SDS011;11382;48.086;11.632;2023-06-26T12:49:15;7.38;;;6.03;;
22429;SDS011;11382;48.086;11.632;2023-06-26T12:51:57;6.65;;;5.95;;
22429;SDS011;11382;48.086;11.632;2023-06-26T12:54:25;7.55;;;6.07;;
22429;SDS011;11382;48.086;11.632;2023-06-26T12:56:54;6.60;;;6.00;;
22429;SDS011;11382;48.086;11.632;2023-06-26T12:59:22;8.52;;;5.97;;
22429;SDS011;11382;48.086;11.632;2023-06-26T13:01:50;8.70;;;6.30;;
22429;SDS011;11382;48.086;11.632;2023-06-26T13:04:19;8.15;;;6.40;;
22429;SDS011;11382;48.086;11.632;2023-06-26T13:06:47;9.18;;;5.95;;
22429;SDS011;11382;48.086;11.632;2023-06-26T13:09:15;7.80;;;6.43;;
22429;SDS011;11382;48.086;11.632;2023-06-26T13:11:44;6.90;;;6.05;;
22429;SDS011;11382;48.086;11.632;2023-06-26T13:14:13;9.20;;;6.70;;
22429;SDS011;11382;48.086;11.632;2023-06-26T13:16:41;6.30;;;5.70;;
22429;SDS011;11382;48.086;11.632;2023-06-26T13:19:09;6.93;;;6.22;;
22429;SDS011;11382;48.086;11.632;2023-06-26T13:21:38;6.50;;;5.82;;
22429;SDS011;11382;48.086;11.632;2023-06-26T13:24:06;7.38;;;6.20;;
22429;SDS011;11382;48.086;11.632;2023-06-26T13:26:34;8.02;;;5.53;;
22429;SDS011;11382;48.086;11.632;2023-06-26T13:29:04;7.00;;;6.30;;
22429;SDS011;11382;48.086;11.632;2023-06-26T13:31:33;8.15;;;6.60;;
22429;SDS011;11382;48.086;11.632;2023-06-26T13:34:02;7.68;;;6.13;;
22429;SDS011;11382;48.086;11.632;2023-06-26T13:36:31;7.03;;;6.28;;
22429;SDS011;11382;48.086;11.632;2023-06-26T13:39:01;7.70;;;6.50;;
22429;SDS011;11382;48.086;11.632;2023-06-26T13:41:30;7.30;;;6.22;;
22429;SDS011;11382;48.086;11.632;2023-06-26T13:43:57;6.90;;;6.20;;
22429;SDS011;11382;48.086;11.632;2023-06-26T13:46:46;8.60;;;6.70;;
22429;SDS011;11382;48.086;11.632;2023-06-26T13:49:14;7.95;;;7.05;;
22429;SDS011;11382;48.086;11.632;2023-06-26T13:51:42;10.23;;;6.75;;
22429;SDS011;11382;48.086;11.632;2023-06-26T13:54:13;8.48;;;6.35;;
22429;SDS011;11382;48.086;11.632;2023-06-26T13:56:41;7.88;;;6.88;;
22429;SDS011;11382;48.086;11.632;2023-06-26T13:59:09;7.47;;;6.60;;
22429;SDS011;11382;48.086;11.632;2023-06-26T14:01:38;7.97;;;7.18;;
22429;SDS011;11382;48.086;11.632;2023-06-26T14:04:10;6.88;;;6.18;;
22429;SDS011;11382;48.086;11.632;2023-06-26T14:06:38;8.43;;;6.50;;
22429;SDS011;11382;48.086;11.632;2023-06-26T14:09:06;7.95;;;7.05;;
22429;SDS011;11382;48.086;11.632;2023-06-26T14:11:34;9.27;;;6.95;;
22429;SDS011;11382;48.086;11.632;2023-06-26T14:14:02;8.48;;;6.75;;
22429;SDS011;11382;48.086;11.632;2023-06-26T14:16:30;10.68;;;6.90;;
22429;SDS011;11382;48.086;11.632;2023-06-26T14:19:00;8.10;;;6.68;;
22429;SDS011;11382;48.086;11.632;2023-06-26T14:21:30;7.93;;;6.88;;
22429;SDS011;11382;48.086;11.632;2023-06-26T14:23:59;7.90;;;7.03;;
22429;SDS011;11382;48.086;11.632;2023-06-26T14:26:28;7.22;;;6.22;;
22429;SDS011;11382;48.086;11.632;2023-06-26T14:28:58;7.45;;;6.68;;
22429;SDS011;11382;48.086;11.632;2023-06-26T14:31:26;7.32;;;6.63;;
22429;SDS011;11382;48.086;11.632;2023-06-26T14:33:54;8.35;;;6.45;;
22429;SDS011;11382;48.086;11.632;2023-06-26T14:36:22;7.85;;;6.70;;
22429;SDS011;11382;48.086;11.632;2023-06-26T14:38:51;8.85;;;6.53;;
22429;SDS011;11382;48.086;11.632;2023-06-26T14:41:20;9.68;;;6.45;;
22429;SDS011;11382;48.086;11.632;2023-06-26T14:43:48;7.97;;;6.57;;
22429;SDS011;11382;48.086;11.632;2023-06-26T14:46:17;8.20;;;6.20;;
22429;SDS011;11382;48.086;11.632;2023-06-26T14:48:45;7.43;;;6.35;;
22429;SDS011;11382;48.086;11.632;2023-06-26T14:51:13;7.57;;;6.30;;
22429;SDS011;11382;48.086;11.632;2023-06-26T14:53:41;8.88;;;6.63;;
22429;SDS011;11382;48.086;11.632;2023-06-26T14:56:11;8.75;;;6.80;;
22429;SDS011;11382;48.086;11.632;2023-06-26T14:58:39;8.13;;;6.22;;
22429;SDS011;11382;48.086;11.632;2023-06-26T15:01:06;9.52;;;6.28;;
22429;SDS011;11382;48.086;11.632;2023-06-26T15:03:35;8.95;;;6.55;;
22429;SDS011;11382;48.086;11.632;2023-06-26T15:06:03;8.05;;;6.45;;
22429;SDS011;11382;48.086;11.632;2023-06-26T15:08:31;7.30;;;6.32;;
22429;SDS011;11382;48.086;11.632;2023-06-26T15:11:00;7.57;;;6.32;;
22429;SDS011;11382;48.086;11.632;2023-06-26T15:13:30;10.35;;;6.53;;